createdAt,value
2023-05-03T00:04:24.442Z,20.90
2023-05-03T00:06:58.674Z,21.10
2023-05-03T00:09:31.768Z,21.20
2023-05-03T00:12:07.601Z,21.00
2023-05-03T00:14:45.720Z,21.20
2023-05-03T00:17:43.534Z,21.10
2023-05-03T00:20:22.749Z,21.30
2023-05-03T00:23:01.382Z,21.40
2023-05-03T00:25:58.964Z,21.50
2023-05-03T00:28:49.600Z,21.00
2023-05-03T00:31:39.215Z,20.90
2023-05-03T00:34:21.298Z,21.40
2023-05-03T00:37:02.198Z,20.80
2023-05-03T00:39:38.312Z,20.60
2023-05-03T00:42:22.645Z,20.80
2023-05-03T00:45:25.788Z,20.80
2023-05-03T00:48:14.095Z,21.20
2023-05-03T00:51:09.833Z,21.00
2023-05-03T00:53:58.532Z,20.80
2023-05-03T00:56:47.840Z,20.50
2023-05-03T00:59:31.135Z,20.90
2023-05-03T01:02:10.164Z,20.80
2023-05-03T01:04:50.788Z,21.00
2023-05-03T01:07:36.414Z,20.90
2023-05-03T01:10:25.658Z,20.90
2023-05-03T01:13:11.749Z,21.00
2023-05-03T01:15:59.124Z,21.20
2023-05-03T01:18:41.435Z,21.30
2023-05-03T01:21:20.476Z,21.40
2023-05-03T01:24:05.056Z,21.30
2023-05-03T01:26:42.777Z,21.60
2023-05-03T01:29:17.515Z,21.50
2023-05-03T01:32:06.345Z,21.40
2023-05-03T01:34:51.002Z,21.50
2023-05-03T01:37:26.556Z,21.30
2023-05-03T01:40:09.005Z,21.10
2023-05-03T01:43:03.390Z,21.20
2023-05-03T01:45:39.630Z,21.00
2023-05-03T01:48:21.405Z,21.20
2023-05-03T01:51:00.793Z,21.00
2023-05-03T01:53:34.790Z,21.00
2023-05-03T01:56:13.883Z,21.20
2023-05-03T01:58:53.050Z,20.80
2023-05-03T02:01:31.250Z,21.20
2023-05-03T02:04:12.661Z,21.50
2023-05-03T02:06:46.955Z,21.20
2023-05-03T02:09:24.225Z,20.90
2023-05-03T02:12:11.180Z,21.10
2023-05-03T02:15:04.232Z,21.00
2023-05-03T02:17:40.907Z,20.70
2023-05-03T02:20:16.352Z,20.80
2023-05-03T02:22:51.303Z,20.70
2023-05-03T02:25:27.704Z,20.80
2023-05-03T02:28:04.246Z,21.20
2023-05-03T02:30:39.220Z,21.30
2023-05-03T02:33:18.248Z,21.00
2023-05-03T02:35:56.517Z,21.00
2023-05-03T02:38:30.995Z,21.50
2023-05-03T02:41:06.441Z,21.70
2023-05-03T02:43:40.699Z,21.80
2023-05-03T02:46:20.543Z,22.10
2023-05-03T02:48:58.711Z,22.00
2023-05-03T02:51:38.328Z,21.60
2023-05-03T02:54:12.521Z,21.70
2023-05-03T02:56:52.072Z,21.60
2023-05-03T02:59:25.306Z,22.00
2023-05-03T03:02:09.478Z,22.10
2023-05-03T03:04:49.082Z,21.90
2023-05-03T03:07:24.813Z,22.00
2023-05-03T03:10:13.554Z,22.10
2023-05-03T03:12:48.358Z,22.10
2023-05-03T03:15:31.793Z,22.60
2023-05-03T03:18:11.913Z,23.10
2023-05-03T03:20:49.795Z,23.40
2023-05-03T03:23:28.011Z,23.80
2023-05-03T03:26:05.535Z,24.10
2023-05-03T03:28:41.376Z,24.10
2023-05-03T03:31:22.018Z,24.50
2023-05-03T03:34:01.377Z,24.10
2023-05-03T03:36:43.980Z,24.70
2023-05-03T03:39:21.712Z,25.10
2023-05-03T03:42:01.975Z,25.50
2023-05-03T03:44:38.329Z,25.30
2023-05-03T03:47:16.401Z,25.50
2023-05-03T03:49:55.195Z,25.50
2023-05-03T03:52:29.676Z,25.60
2023-05-03T03:55:14.023Z,25.60
2023-05-03T03:57:52.772Z,25.50
2023-05-03T04:00:29.581Z,24.80
2023-05-03T04:03:12.060Z,24.90
2023-05-03T04:05:51.295Z,25.20
2023-05-03T04:08:37.144Z,26.20
2023-05-03T04:11:15.711Z,26.80
2023-05-03T04:13:58.809Z,26.80
2023-05-03T04:16:38.030Z,26.70
2023-05-03T04:19:13.459Z,26.90
2023-05-03T04:22:10.910Z,26.70
2023-05-03T04:24:46.931Z,26.40
2023-05-03T04:27:22.161Z,26.50
2023-05-03T04:29:59.170Z,26.90
2023-05-03T04:32:41.361Z,26.80
2023-05-03T04:35:23.684Z,27.50
2023-05-03T04:38:05.935Z,27.70
2023-05-03T04:40:49.019Z,26.80
2023-05-03T04:43:29.293Z,26.60
2023-05-03T04:46:06.023Z,26.50
2023-05-03T04:48:42.794Z,26.00
2023-05-03T04:51:16.877Z,26.00
2023-05-03T04:53:59.578Z,26.50
2023-05-03T04:56:37.413Z,26.10
2023-05-03T04:59:30.885Z,26.30
2023-05-03T05:02:14.714Z,26.50
2023-05-03T05:04:50.502Z,27.40
2023-05-03T05:07:29.494Z,27.60
2023-05-03T05:10:12.936Z,27.50
2023-05-03T05:12:55.265Z,27.70
2023-05-03T05:15:33.477Z,27.80
2023-05-03T05:18:15.999Z,27.90
2023-05-03T05:20:52.392Z,27.90
2023-05-03T05:23:31.286Z,28.00
2023-05-03T05:26:10.877Z,27.90
2023-05-03T05:28:47.949Z,28.30
2023-05-03T05:31:27.059Z,28.40
2023-05-03T05:34:03.306Z,27.40
2023-05-03T05:36:42.273Z,27.50
2023-05-03T05:39:20.274Z,28.10
2023-05-03T05:42:08.470Z,28.40
2023-05-03T05:44:44.816Z,28.90
2023-05-03T05:47:22.578Z,28.50
2023-05-03T05:50:05.900Z,27.80
2023-05-03T05:52:53.336Z,27.80
2023-05-03T05:55:33.638Z,28.10
2023-05-03T05:58:16.376Z,28.40
2023-05-03T06:00:57.148Z,28.60
2023-05-03T06:03:31.313Z,28.50
2023-05-03T06:06:15.187Z,28.80
2023-05-03T06:08:55.593Z,28.70
2023-05-03T06:11:28.661Z,28.30
2023-05-03T06:14:12.011Z,28.00
2023-05-03T06:16:55.054Z,28.00
2023-05-03T06:19:35.641Z,27.80
2023-05-03T06:22:17.184Z,27.90
2023-05-03T06:24:55.403Z,27.80
2023-05-03T06:27:30.691Z,27.80
2023-05-03T06:30:12.455Z,28.20
2023-05-03T06:32:48.444Z,28.20
2023-05-03T06:38:29.263Z,28.20
2023-05-03T06:41:07.737Z,28.30
2023-05-03T06:43:43.006Z,28.20
2023-05-03T06:46:24.236Z,28.00
2023-05-03T06:49:00.048Z,27.90
2023-05-03T06:51:35.144Z,27.60
2023-05-03T06:54:11.290Z,27.70
2023-05-03T06:56:47.577Z,27.90
2023-05-03T06:59:23.959Z,28.10
2023-05-03T07:02:01.020Z,27.90
2023-05-03T07:04:39.533Z,27.30
2023-05-03T07:10:05.168Z,27.50
2023-05-03T07:12:55.150Z,27.80
2023-05-03T07:15:37.685Z,28.10
2023-05-03T07:18:13.501Z,28.50
2023-05-03T07:20:53.502Z,28.70
2023-05-03T07:23:30.166Z,28.70
2023-05-03T07:26:04.838Z,28.60
2023-05-03T07:28:38.311Z,28.50
2023-05-03T07:31:20.978Z,28.70
2023-05-03T07:34:01.670Z,28.90
2023-05-03T07:36:38.187Z,28.60
2023-05-03T07:39:15.257Z,28.30
2023-05-03T07:41:55.583Z,28.40
2023-05-03T07:44:33.743Z,28.70
2023-05-03T07:47:09.375Z,28.60
2023-05-03T07:49:56.540Z,28.40
2023-05-03T07:52:44.679Z,28.10
2023-05-03T07:55:23.718Z,28.40
2023-05-03T07:58:00.940Z,28.40
2023-05-03T08:00:36.439Z,28.40
2023-05-03T08:03:16.553Z,28.30
2023-05-03T08:05:52.938Z,28.50
2023-05-03T08:08:33.158Z,28.40
2023-05-03T08:11:09.657Z,28.70
2023-05-03T08:13:49.593Z,28.80
2023-05-03T08:16:26.111Z,28.80
2023-05-03T08:18:59.948Z,28.40
2023-05-03T08:21:45.082Z,28.50
2023-05-03T08:24:23.819Z,28.50
2023-05-03T08:27:04.846Z,28.30
2023-05-03T08:29:40.568Z,28.20
2023-05-03T08:32:19.620Z,28.40
2023-05-03T08:34:55.874Z,28.40
2023-05-03T08:37:45.014Z,28.50
2023-05-03T08:40:21.816Z,28.40
2023-05-03T08:43:04.670Z,28.30
2023-05-03T08:45:48.714Z,28.30
2023-05-03T08:48:24.142Z,28.30
2023-05-03T08:51:03.887Z,28.30
2023-05-03T08:53:44.090Z,28.40
2023-05-03T08:56:35.606Z,28.50
2023-05-03T08:59:14.546Z,28.20
2023-05-03T09:01:49.451Z,27.50
2023-05-03T09:04:25.306Z,27.50
2023-05-03T09:07:14.600Z,27.50
2023-05-03T09:09:52.869Z,27.60
2023-05-03T09:12:45.077Z,27.80
2023-05-03T09:15:28.626Z,27.80
2023-05-03T09:18:20.401Z,27.80
2023-05-03T09:20:59.169Z,27.70
2023-05-03T09:23:36.243Z,27.70
2023-05-03T09:26:14.145Z,27.60
2023-05-03T09:28:50.037Z,27.40
2023-05-03T09:31:25.000Z,27.40
2023-05-03T09:34:03.365Z,27.40
2023-05-03T09:36:51.606Z,27.20
2023-05-03T09:42:23.770Z,27.20
2023-05-03T09:45:03.831Z,27.20
2023-05-03T09:47:54.202Z,27.10
2023-05-03T09:50:32.803Z,27.00
2023-05-03T09:53:15.501Z,26.90
2023-05-03T09:55:52.426Z,26.70
2023-05-03T09:58:36.166Z,26.60
2023-05-03T10:01:12.631Z,26.60
2023-05-03T10:03:52.277Z,26.50
2023-05-03T10:06:34.185Z,26.60
2023-05-03T10:09:12.964Z,26.60
2023-05-03T10:11:54.434Z,26.60
2023-05-03T10:14:34.632Z,26.60
2023-05-03T10:17:15.888Z,26.50
2023-05-03T10:19:57.185Z,26.60
2023-05-03T10:22:37.970Z,26.50
2023-05-03T10:25:21.197Z,26.50
2023-05-03T10:27:58.836Z,26.30
2023-05-03T10:30:51.173Z,26.20
2023-05-03T10:33:39.446Z,26.20
2023-05-03T10:36:18.355Z,26.20
2023-05-03T10:38:59.068Z,25.90
2023-05-03T10:41:38.330Z,25.90
2023-05-03T10:44:31.261Z,25.90
2023-05-03T10:47:18.205Z,25.80
2023-05-03T10:49:54.535Z,25.70
2023-05-03T10:52:56.077Z,25.60
2023-05-03T10:55:38.796Z,25.60
2023-05-03T10:58:20.149Z,25.50
2023-05-03T11:00:57.302Z,25.40
2023-05-03T11:03:51.118Z,25.40
2023-05-03T11:06:42.977Z,25.30
2023-05-03T11:09:17.787Z,25.20
2023-05-03T11:11:52.819Z,25.20
2023-05-03T11:14:28.134Z,25.10
2023-05-03T11:17:05.436Z,25.00
2023-05-03T11:19:49.940Z,25.10
2023-05-03T11:22:26.755Z,24.90
2023-05-03T11:25:05.829Z,24.90
2023-05-03T11:27:53.233Z,24.90
2023-05-03T11:30:34.871Z,24.90
2023-05-03T11:33:17.071Z,24.90
2023-05-03T11:35:58.268Z,24.90
2023-05-03T11:38:37.784Z,24.90
2023-05-03T11:41:19.541Z,24.90
2023-05-03T11:44:14.503Z,24.80
2023-05-03T11:50:01.998Z,24.80
2023-05-03T11:52:46.936Z,24.80
2023-05-03T11:55:21.375Z,24.80
2023-05-03T11:58:08.115Z,24.80
2023-05-03T12:00:54.549Z,24.80
2023-05-03T12:03:32.501Z,24.80
2023-05-03T12:06:10.158Z,24.80
2023-05-03T12:08:53.204Z,24.80
2023-05-03T12:11:32.999Z,24.80
2023-05-03T12:14:24.530Z,24.70
2023-05-03T12:17:04.410Z,24.80
2023-05-03T12:19:45.056Z,24.70
2023-05-03T12:22:40.003Z,24.70
2023-05-03T12:25:26.218Z,24.70
2023-05-03T12:28:20.390Z,24.60
2023-05-03T12:30:58.076Z,24.60
2023-05-03T12:33:43.877Z,24.60
2023-05-03T12:36:29.196Z,24.60
2023-05-03T12:39:11.359Z,24.60
2023-05-03T12:44:47.929Z,24.50
2023-05-03T12:47:36.035Z,24.50
2023-05-03T12:50:18.985Z,24.50
2023-05-03T12:52:55.504Z,24.50
2023-05-03T12:55:51.545Z,24.50
2023-05-03T13:02:40.895Z,24.40
2023-05-03T13:07:29.525Z,24.40
2023-05-03T13:12:54.132Z,24.40
2023-05-03T13:15:43.147Z,24.40
2023-05-03T13:18:22.465Z,24.40
2023-05-03T13:21:02.248Z,24.30
2023-05-03T13:23:47.888Z,24.30
2023-05-03T13:26:30.964Z,24.40
2023-05-03T13:29:12.194Z,24.40
2023-05-03T13:31:54.050Z,24.40
2023-05-03T13:34:29.034Z,24.50
2023-05-03T13:37:08.737Z,24.50
2023-05-03T13:39:49.594Z,24.40
2023-05-03T13:42:29.289Z,24.50
2023-05-03T13:45:03.135Z,24.50
2023-05-03T13:50:26.913Z,24.50
2023-05-03T13:53:00.322Z,24.50
2023-05-03T13:55:36.287Z,24.50
2023-05-03T13:58:15.153Z,24.50
2023-05-03T14:00:52.773Z,24.40
2023-05-03T14:03:32.302Z,24.40
2023-05-03T14:06:11.248Z,24.50
2023-05-03T14:08:52.286Z,24.50
2023-05-03T14:11:33.396Z,24.50
2023-05-03T14:16:55.646Z,24.40
2023-05-03T14:19:36.265Z,24.30
2023-05-03T14:25:02.686Z,24.20
2023-05-03T14:27:38.452Z,24.20
2023-05-03T14:30:16.356Z,24.10
2023-05-03T14:32:54.095Z,24.10
2023-05-03T14:35:46.345Z,24.20
2023-05-03T14:38:25.650Z,24.10
2023-05-03T14:41:05.848Z,24.20
2023-05-03T14:43:42.666Z,24.10
2023-05-03T14:46:19.227Z,24.10
2023-05-03T14:48:54.455Z,24.10
2023-05-03T14:51:45.016Z,24.20
2023-05-03T14:54:24.980Z,24.10
2023-05-03T14:57:01.616Z,24.00
2023-05-03T14:59:38.576Z,24.00
2023-05-03T15:02:22.461Z,24.00
2023-05-03T15:04:58.231Z,24.00
2023-05-03T15:07:37.102Z,23.90
2023-05-03T15:10:15.122Z,23.80
2023-05-03T15:12:55.667Z,23.80
2023-05-03T15:15:31.787Z,23.70
2023-05-03T15:18:23.566Z,23.70
2023-05-03T15:21:03.431Z,23.60
2023-05-03T15:23:50.128Z,23.70
2023-05-03T15:26:26.103Z,23.60
2023-05-03T15:29:01.647Z,23.70
2023-05-03T15:31:39.717Z,23.80
2023-05-03T15:34:15.905Z,23.90
2023-05-03T15:36:54.745Z,23.80
2023-05-03T15:39:35.604Z,23.90
2023-05-03T15:42:11.213Z,23.90
2023-05-03T15:44:49.636Z,24.00
2023-05-03T15:47:30.447Z,23.80
2023-05-03T15:50:08.137Z,23.80
2023-05-03T15:52:47.171Z,23.80
2023-05-03T15:55:48.707Z,23.80
2023-05-03T15:58:28.154Z,23.60
2023-05-03T16:01:08.334Z,23.60
2023-05-03T16:03:48.309Z,23.80
2023-05-03T16:06:22.300Z,23.90
2023-05-03T16:08:59.057Z,23.70
2023-05-03T16:11:46.309Z,23.80
2023-05-03T16:14:24.082Z,23.70
2023-05-03T16:17:03.210Z,23.60
2023-05-03T16:19:40.008Z,23.60
2023-05-03T16:22:15.316Z,23.40
2023-05-03T16:24:52.331Z,23.40
2023-05-03T16:27:31.682Z,23.40
2023-05-03T16:30:09.433Z,23.30
2023-05-03T16:32:45.331Z,23.30
2023-05-03T16:35:20.701Z,23.50
2023-05-03T16:38:01.976Z,23.30
2023-05-03T16:40:40.294Z,23.40
2023-05-03T16:43:17.460Z,23.40
2023-05-03T16:46:05.796Z,23.50
2023-05-03T16:48:46.589Z,23.50
2023-05-03T16:51:29.367Z,23.50
2023-05-03T16:54:04.699Z,23.50
2023-05-03T16:56:40.174Z,23.50
2023-05-03T16:59:18.738Z,23.40
2023-05-03T17:01:53.226Z,23.40
2023-05-03T17:04:30.569Z,23.40
2023-05-03T17:07:04.747Z,23.40
2023-05-03T17:09:38.762Z,23.30
2023-05-03T17:12:14.026Z,23.30
2023-05-03T17:14:52.507Z,23.30
2023-05-03T17:17:28.324Z,23.40
2023-05-03T17:20:04.561Z,23.30
2023-05-03T17:22:41.096Z,23.20
2023-05-03T17:25:24.078Z,23.30
2023-05-03T17:28:00.735Z,23.30
2023-05-03T17:30:41.249Z,23.40
2023-05-03T17:33:21.455Z,23.40
2023-05-03T17:35:55.729Z,23.40
2023-05-03T17:38:33.583Z,23.40
2023-05-03T17:41:13.201Z,23.40
2023-05-03T17:43:51.442Z,23.40
2023-05-03T17:46:27.190Z,23.30
2023-05-03T17:49:05.485Z,23.20
2023-05-03T17:51:40.737Z,23.20
2023-05-03T17:54:17.141Z,23.20
2023-05-03T17:56:51.589Z,23.10
2023-05-03T17:59:28.685Z,23.20
2023-05-03T18:02:08.300Z,23.10
2023-05-03T18:04:43.610Z,23.10
2023-05-03T18:07:23.614Z,23.10
2023-05-03T18:09:59.113Z,23.00
2023-05-03T18:12:34.899Z,23.00
2023-05-03T18:15:11.787Z,23.00
2023-05-03T18:17:51.293Z,22.90
2023-05-03T18:20:32.206Z,22.90
2023-05-03T18:23:06.530Z,22.90
2023-05-03T18:25:46.089Z,23.00
2023-05-03T18:28:22.553Z,22.90
2023-05-03T18:31:00.868Z,23.00
2023-05-03T18:33:39.550Z,23.00
2023-05-03T18:36:21.038Z,23.00
2023-05-03T18:38:57.469Z,23.00
2023-05-03T18:41:37.682Z,23.00
2023-05-03T18:44:12.509Z,22.90
2023-05-03T18:46:50.658Z,22.90
2023-05-03T18:49:29.202Z,23.00
2023-05-03T18:52:06.978Z,23.00
2023-05-03T18:54:44.347Z,23.00
2023-05-03T18:57:23.702Z,22.90
2023-05-03T19:00:03.272Z,23.00
2023-05-03T19:02:40.423Z,22.90
2023-05-03T19:05:21.202Z,22.90
2023-05-03T19:08:00.073Z,22.90
2023-05-03T19:10:34.921Z,23.00
2023-05-03T19:13:12.005Z,22.90
2023-05-03T19:15:48.246Z,22.80
2023-05-03T19:18:24.030Z,23.00
2023-05-03T19:21:03.364Z,23.00
2023-05-03T19:23:38.454Z,23.00
2023-05-03T19:26:26.220Z,23.00
2023-05-03T19:29:03.378Z,23.00
2023-05-03T19:31:38.282Z,23.00
2023-05-03T19:34:14.368Z,22.90
2023-05-03T19:36:53.455Z,22.80
2023-05-03T19:39:28.360Z,22.90
2023-05-03T19:42:06.198Z,22.80
2023-05-03T19:44:41.693Z,22.90
2023-05-03T19:47:21.711Z,22.80
2023-05-03T19:50:00.576Z,22.80
2023-05-03T19:52:42.141Z,22.70
2023-05-03T19:55:21.690Z,22.80
2023-05-03T19:57:56.967Z,22.70
2023-05-03T20:00:33.703Z,22.80
2023-05-03T20:03:09.496Z,22.80
2023-05-03T20:05:44.238Z,22.70
2023-05-03T20:08:39.108Z,22.80
2023-05-03T20:11:16.305Z,22.80
2023-05-03T20:13:54.371Z,22.80
2023-05-03T20:16:34.825Z,22.90
2023-05-03T20:19:12.172Z,22.80
2023-05-03T20:21:46.242Z,22.80
2023-05-03T20:24:24.084Z,22.80
2023-05-03T20:27:01.879Z,22.80
2023-05-03T20:29:37.228Z,22.80
2023-05-03T20:32:16.505Z,22.80
2023-05-03T20:34:55.117Z,22.60
2023-05-03T20:37:29.996Z,22.70
2023-05-03T20:40:09.362Z,22.70
2023-05-03T20:42:45.357Z,22.60
2023-05-03T20:45:24.289Z,22.70
2023-05-03T20:48:00.893Z,22.70
2023-05-03T20:50:39.422Z,22.70
2023-05-03T20:53:14.422Z,22.70
2023-05-03T20:55:50.618Z,22.70
2023-05-03T20:58:24.185Z,22.70
2023-05-03T21:01:08.401Z,22.70
2023-05-03T21:03:41.816Z,22.70
2023-05-03T21:06:22.120Z,22.60
2023-05-03T21:08:55.082Z,22.60
2023-05-03T21:11:34.811Z,22.60
2023-05-03T21:14:13.578Z,22.60
2023-05-03T21:16:47.095Z,22.40
2023-05-03T21:19:22.563Z,22.50
2023-05-03T21:22:00.500Z,22.50
2023-05-03T21:24:38.667Z,22.30
2023-05-03T21:27:17.494Z,22.40
2023-05-03T21:29:53.414Z,22.30
2023-05-03T21:32:30.188Z,22.30
2023-05-03T21:35:08.033Z,22.30
2023-05-03T21:38:00.988Z,22.20
2023-05-03T21:40:37.245Z,22.30
2023-05-03T21:43:20.714Z,22.30
2023-05-03T21:45:56.879Z,22.40
2023-05-03T21:48:34.236Z,22.30
2023-05-03T21:51:09.074Z,22.30
2023-05-03T21:53:45.739Z,22.30
2023-05-03T21:56:22.499Z,22.30
2023-05-03T21:59:01.750Z,22.30
2023-05-03T22:01:39.374Z,22.40
2023-05-03T22:04:13.712Z,22.30
2023-05-03T22:06:49.803Z,22.30
2023-05-03T22:09:28.226Z,22.30
2023-05-03T22:12:22.317Z,22.30
2023-05-03T22:15:07.316Z,22.20
2023-05-03T22:17:45.519Z,22.20
2023-05-03T22:20:24.735Z,22.20
2023-05-03T22:22:59.923Z,22.20
2023-05-03T22:25:33.693Z,22.20
2023-05-03T22:28:12.330Z,22.10
2023-05-03T22:30:51.760Z,22.20
2023-05-03T22:33:34.986Z,22.30
2023-05-03T22:36:10.477Z,22.20
2023-05-03T22:38:47.721Z,22.30
2023-05-03T22:41:26.973Z,22.50
2023-05-03T22:44:04.333Z,22.60
2023-05-03T22:46:41.798Z,22.70
2023-05-03T22:49:15.159Z,22.90
2023-05-03T22:51:51.893Z,23.00
2023-05-03T22:54:29.546Z,23.40
2023-05-03T22:57:03.185Z,24.10
2023-05-03T22:59:39.612Z,24.70
2023-05-03T23:02:20.067Z,25.80
2023-05-03T23:05:00.541Z,26.90
2023-05-03T23:07:35.381Z,27.60
2023-05-03T23:10:14.456Z,28.30
2023-05-03T23:12:54.498Z,28.80
2023-05-03T23:15:34.316Z,29.70
2023-05-03T23:18:12.440Z,30.40
2023-05-03T23:20:49.127Z,31.10
2023-05-03T23:23:27.950Z,31.50
2023-05-03T23:26:04.025Z,32.20
2023-05-03T23:28:42.475Z,32.90
2023-05-03T23:31:18.062Z,33.30
2023-05-03T23:33:55.837Z,34.40
2023-05-03T23:36:39.846Z,34.90
2023-05-03T23:39:15.371Z,35.10
2023-05-03T23:41:55.268Z,34.60
2023-05-03T23:44:46.485Z,34.70
2023-05-03T23:47:26.494Z,34.70
2023-05-03T23:50:05.643Z,34.60
2023-05-03T23:52:48.721Z,35.20
2023-05-03T23:55:26.904Z,35.50
2023-05-03T23:58:03.940Z,36.70
